createdAt,value
2023-06-29T00:01:24.001Z,17.69
2023-06-29T00:03:54.050Z,17.65
2023-06-29T00:06:24.159Z,17.63
2023-06-29T00:08:54.087Z,17.58
2023-06-29T00:11:24.238Z,17.56
2023-06-29T00:13:54.238Z,17.56
2023-06-29T00:16:24.136Z,17.55
2023-06-29T00:18:57.096Z,17.53
2023-06-29T00:21:29.658Z,17.51
2023-06-29T00:23:59.728Z,17.48
2023-06-29T00:26:31.506Z,17.46
2023-06-29T00:29:01.372Z,17.44
2023-06-29T00:31:31.252Z,17.41
2023-06-29T00:34:01.067Z,17.38
2023-06-29T00:36:31.109Z,17.35
2023-06-29T00:39:02.966Z,17.30
2023-06-29T00:41:34.288Z,17.26
2023-06-29T00:44:04.475Z,17.23
2023-06-29T00:46:34.428Z,17.22
2023-06-29T00:49:04.192Z,17.20
2023-06-29T00:51:34.005Z,17.17
2023-06-29T00:54:04.233Z,17.60
2023-06-29T00:56:35.100Z,20.04
2023-06-29T00:59:04.812Z,20.44
2023-06-29T01:01:35.388Z,19.84
2023-06-29T01:04:05.855Z,19.28
2023-06-29T01:06:38.711Z,18.84
2023-06-29T01:09:09.412Z,18.50
2023-06-29T01:11:40.401Z,18.25
2023-06-29T01:14:12.080Z,18.05
2023-06-29T01:16:42.676Z,17.86
2023-06-29T01:19:15.108Z,17.73
2023-06-29T01:21:49.353Z,17.59
2023-06-29T01:24:19.081Z,17.49
2023-06-29T01:26:50.350Z,17.39
2023-06-29T01:29:26.410Z,17.78
2023-06-29T01:32:01.361Z,20.13
2023-06-29T01:34:32.240Z,20.34
2023-06-29T01:37:06.359Z,19.71
2023-06-29T01:39:40.152Z,19.16
2023-06-29T01:42:12.959Z,18.74
2023-06-29T01:44:42.882Z,18.42
2023-06-29T01:47:12.920Z,18.16
2023-06-29T01:49:42.876Z,17.95
2023-06-29T01:52:12.696Z,17.79
2023-06-29T01:54:42.763Z,17.64
2023-06-29T01:57:13.984Z,17.51
2023-06-29T01:59:44.534Z,17.39
2023-06-29T02:02:15.533Z,17.76
2023-06-29T02:04:45.411Z,20.12
2023-06-29T02:07:15.590Z,20.44
2023-06-29T02:09:45.313Z,19.82
2023-06-29T02:12:15.689Z,19.25
2023-06-29T02:14:45.552Z,18.80
2023-06-29T02:17:15.762Z,18.43
2023-06-29T02:19:45.622Z,18.16
2023-06-29T02:22:15.674Z,17.94
2023-06-29T02:24:45.477Z,17.77
2023-06-29T02:27:15.544Z,17.63
2023-06-29T02:29:47.461Z,17.50
2023-06-29T02:32:17.237Z,17.86
2023-06-29T02:34:47.315Z,20.14
2023-06-29T02:37:18.038Z,20.37
2023-06-29T02:39:48.340Z,19.67
2023-06-29T11:30:20.459Z,18.80
2023-06-29T11:32:53.250Z,21.67
2023-06-29T11:35:23.657Z,22.46
2023-06-29T11:37:58.775Z,22.00
2023-06-29T11:40:29.150Z,21.54
2023-06-29T11:42:59.344Z,21.22
2023-06-29T11:45:29.204Z,21.01
2023-06-29T11:47:59.065Z,20.88
2023-06-29T11:50:31.658Z,21.27
2023-06-29T11:53:01.781Z,23.71
2023-06-29T11:55:31.997Z,24.11
2023-06-29T11:58:02.748Z,23.57
2023-06-29T12:00:33.748Z,23.07
2023-06-29T12:03:10.606Z,22.67
2023-06-29T12:05:45.213Z,22.36
2023-06-29T12:08:16.935Z,22.08
2023-06-29T12:10:47.102Z,21.87
2023-06-29T12:13:17.049Z,21.70
2023-06-29T12:18:21.590Z,21.51
2023-06-29T12:20:51.837Z,21.45
2023-06-29T12:36:35.467Z,21.30
2023-06-29T12:39:05.866Z,21.24
2023-06-29T12:41:37.619Z,21.20
2023-06-29T12:44:07.785Z,21.17
2023-06-29T12:46:38.157Z,21.15
2023-06-29T12:49:08.703Z,21.16
2023-06-29T12:51:39.033Z,21.18
2023-06-29T12:54:11.123Z,21.19
2023-06-29T13:03:16.288Z,21.33
2023-06-29T13:05:50.886Z,21.38
2023-06-29T13:08:21.155Z,21.46
2023-06-29T13:10:53.037Z,21.52
2023-06-29T13:13:23.415Z,21.58
2023-06-29T13:15:53.209Z,21.64
2023-06-29T13:18:23.296Z,21.69
2023-06-29T13:20:53.435Z,21.72
2023-06-29T13:23:23.268Z,21.74
2023-06-29T13:25:53.234Z,21.76
2023-06-29T13:28:23.039Z,21.77
2023-06-29T13:30:52.954Z,21.78
2023-06-29T13:33:24.182Z,21.80
2023-06-29T13:35:53.909Z,21.83
2023-06-29T13:38:24.486Z,21.86
2023-06-29T13:40:54.254Z,21.89
2023-06-29T13:43:24.166Z,21.91
2023-06-29T13:45:55.353Z,21.92
2023-06-29T13:48:25.419Z,21.93
2023-06-29T13:50:55.335Z,21.93
2023-06-29T13:53:25.348Z,21.94
2023-06-29T13:55:55.471Z,21.95
2023-06-29T13:58:25.275Z,21.98
2023-06-29T14:00:55.415Z,22.01
2023-06-29T14:03:25.505Z,22.04
2023-06-29T14:05:55.315Z,22.05
2023-06-29T14:08:25.967Z,22.05
2023-06-29T14:10:55.920Z,22.06
2023-06-29T14:13:25.830Z,22.06
2023-06-29T14:15:55.738Z,22.07
2023-06-29T14:18:26.147Z,22.09
2023-06-29T14:20:56.382Z,22.10
2023-06-29T14:23:26.951Z,22.11
2023-06-29T14:25:56.750Z,22.10
2023-06-29T14:28:26.966Z,22.08
2023-06-29T14:30:57.734Z,22.06
2023-06-29T14:33:29.792Z,22.03
2023-06-29T14:41:21.340Z,22.05
2023-06-29T14:43:51.504Z,22.03
2023-06-29T14:46:21.465Z,22.02
2023-06-29T14:48:53.961Z,22.02
2023-06-29T14:51:23.737Z,22.04
2023-06-29T14:53:53.666Z,22.07
2023-06-29T14:56:24.964Z,22.12
2023-06-29T14:58:54.975Z,22.17
2023-06-29T15:01:24.890Z,22.21
2023-06-29T15:03:55.484Z,22.26
2023-06-29T15:06:25.467Z,22.30
2023-06-29T15:08:55.565Z,22.31
2023-06-29T15:11:27.133Z,22.30
2023-06-29T15:13:57.126Z,22.30
2023-06-29T15:16:28.919Z,22.26
2023-06-29T15:19:00.550Z,22.20
2023-06-29T15:21:30.556Z,22.15
2023-06-29T15:24:00.695Z,22.09
2023-06-29T15:26:30.598Z,22.01
2023-06-29T15:29:00.530Z,21.96
2023-06-29T15:31:30.679Z,21.95
2023-06-29T15:34:00.675Z,21.94
2023-06-29T15:36:30.528Z,21.93
2023-06-29T15:39:00.375Z,21.92
2023-06-29T15:41:30.389Z,21.91
2023-06-29T15:44:01.805Z,21.92
2023-06-29T15:46:32.824Z,21.94
2023-06-29T15:49:02.788Z,21.98
2023-06-29T15:51:32.839Z,22.03
2023-06-29T15:54:02.708Z,22.07
2023-06-29T15:56:32.697Z,22.10
2023-06-29T15:59:02.665Z,22.11
2023-06-29T16:01:32.596Z,22.09
2023-06-29T16:04:02.397Z,22.06
2023-06-29T16:06:32.778Z,22.04
2023-06-29T16:09:02.783Z,22.01
2023-06-29T16:11:34.031Z,21.96
2023-06-29T16:14:04.275Z,21.89
2023-06-29T16:16:34.265Z,21.83
2023-06-29T16:19:04.078Z,21.77
2023-06-29T16:21:34.053Z,21.71
2023-06-29T16:24:04.383Z,21.70
2023-06-29T16:26:35.766Z,21.72
2023-06-29T16:29:06.960Z,21.72
2023-06-29T16:31:37.005Z,21.69
2023-06-29T16:34:07.584Z,21.67
2023-06-29T16:36:37.855Z,21.64
2023-06-29T16:39:08.609Z,21.58
2023-06-29T16:41:41.936Z,21.54
2023-06-29T16:44:11.673Z,21.49
2023-06-29T16:46:41.472Z,21.46
2023-06-29T16:49:11.743Z,21.42
2023-06-29T16:51:42.026Z,21.37
2023-06-29T16:54:12.005Z,21.32
2023-06-29T16:56:42.610Z,21.26
2023-06-29T16:59:12.507Z,21.21
2023-06-29T17:01:43.135Z,21.14
2023-06-29T17:04:12.965Z,21.52
2023-06-29T17:06:43.561Z,23.88
2023-06-29T17:09:13.543Z,24.23
2023-06-29T17:11:44.953Z,23.61
2023-06-29T17:14:15.005Z,23.06
2023-06-29T17:16:45.655Z,22.63
2023-06-29T17:19:16.031Z,22.29
2023-06-29T17:21:46.199Z,22.02
2023-06-29T17:24:16.901Z,21.77
2023-06-29T17:26:47.278Z,21.55
2023-06-29T17:29:17.567Z,21.37
2023-06-29T17:31:47.341Z,21.22
2023-06-29T17:34:17.607Z,21.10
2023-06-29T17:36:50.228Z,20.99
2023-06-29T17:39:22.039Z,21.41
2023-06-29T17:41:51.846Z,23.70
2023-06-29T17:44:22.291Z,23.88
2023-06-29T17:46:52.622Z,23.27
2023-06-29T17:49:27.741Z,22.70
2023-06-29T17:51:57.706Z,22.27
2023-06-29T17:54:27.572Z,21.95
2023-06-29T17:56:57.661Z,21.68
2023-06-29T17:59:27.434Z,21.45
2023-06-29T18:01:59.097Z,21.27
2023-06-29T18:04:29.322Z,21.11
2023-06-29T18:07:01.617Z,20.97
2023-06-29T18:09:32.400Z,20.86
2023-06-29T18:12:02.279Z,20.74
2023-06-29T18:14:32.327Z,20.64
2023-06-29T18:17:04.608Z,21.01
2023-06-29T18:19:34.598Z,23.36
2023-06-29T18:22:05.980Z,23.63
2023-06-29T18:24:36.989Z,22.98
2023-06-29T18:27:07.970Z,22.37
2023-06-29T18:29:38.682Z,21.91
2023-06-29T18:32:10.090Z,21.55
2023-06-29T18:34:43.979Z,21.26
2023-06-29T18:37:14.037Z,21.02
2023-06-29T18:39:44.183Z,20.81
2023-06-29T18:42:15.828Z,20.63
2023-06-29T18:44:46.683Z,20.48
2023-06-29T18:47:16.808Z,20.34
2023-06-29T18:49:52.279Z,20.21
2023-06-29T18:52:22.680Z,20.11
2023-06-29T18:54:55.486Z,20.01
2023-06-29T18:57:25.325Z,20.34
2023-06-29T18:59:55.330Z,22.65
2023-06-29T19:02:25.330Z,22.99
2023-06-29T19:04:55.350Z,22.35
2023-06-29T19:07:26.405Z,21.75
2023-06-29T19:09:56.284Z,21.28
2023-06-29T19:12:26.398Z,20.92
2023-06-29T19:14:56.600Z,20.61
2023-06-29T19:17:26.475Z,20.31
2023-06-29T19:19:56.931Z,20.04
2023-06-29T19:22:26.938Z,19.79
2023-06-29T19:24:56.815Z,19.60
2023-06-29T19:27:26.707Z,19.45
2023-06-29T19:29:56.756Z,19.33
2023-06-29T19:32:26.523Z,19.24
2023-06-29T19:34:56.481Z,19.16
2023-06-29T19:37:27.925Z,19.56
2023-06-29T19:39:58.189Z,21.96
2023-06-29T19:42:28.035Z,22.31
2023-06-29T19:44:58.002Z,21.69
2023-06-29T19:47:27.942Z,21.10
2023-06-29T19:49:57.946Z,20.65
2023-06-29T19:52:27.793Z,20.31
2023-06-29T19:54:58.754Z,20.04
2023-06-29T19:57:28.927Z,19.82
2023-06-29T19:59:59.101Z,19.64
2023-06-29T20:02:29.036Z,19.49
2023-06-29T20:04:58.952Z,19.35
2023-06-29T20:07:28.977Z,19.23
2023-06-29T20:09:58.847Z,19.13
2023-06-29T20:12:29.186Z,19.03
2023-06-29T20:14:59.071Z,18.93
2023-06-29T20:17:29.044Z,18.85
2023-06-29T20:19:59.478Z,18.78
2023-06-29T20:22:29.581Z,19.22
2023-06-29T20:24:59.784Z,21.66
2023-06-29T20:27:30.004Z,22.01
2023-06-29T20:30:00.143Z,21.38
2023-06-29T20:32:30.141Z,20.79
2023-06-29T20:35:00.482Z,20.34
2023-06-29T20:37:30.445Z,19.98
2023-06-29T20:40:00.261Z,19.71
2023-06-29T20:42:30.096Z,19.48
2023-06-29T20:45:03.907Z,19.30
2023-06-29T20:47:34.709Z,19.13
2023-06-29T20:50:04.992Z,18.98
2023-06-29T20:52:35.308Z,18.85
2023-06-29T20:55:06.341Z,18.75
2023-06-29T20:57:38.431Z,18.66
2023-06-29T21:00:13.005Z,18.57
2023-06-29T21:02:43.115Z,18.99
2023-06-29T21:05:14.024Z,21.40
2023-06-29T21:07:44.996Z,21.72
2023-06-29T21:10:15.233Z,21.07
2023-06-29T21:12:49.915Z,20.49
2023-06-29T21:15:20.526Z,20.01
2023-06-29T21:17:52.117Z,19.65
2023-06-29T21:20:23.302Z,19.36
2023-06-29T21:22:54.215Z,19.14
2023-06-29T21:25:25.199Z,18.95
2023-06-29T21:27:56.077Z,18.79
2023-06-29T21:30:26.136Z,18.65
2023-06-29T21:32:57.154Z,18.53
2023-06-29T21:35:27.816Z,18.41
2023-06-29T21:37:58.576Z,18.30
2023-06-29T21:40:28.508Z,18.65
2023-06-29T21:42:58.533Z,20.97
2023-06-29T21:45:28.753Z,21.34
2023-06-29T21:47:58.728Z,20.71
2023-06-29T21:50:31.071Z,20.12
2023-06-29T21:53:01.105Z,19.67
2023-06-29T21:55:31.157Z,19.34
2023-06-29T21:58:01.082Z,19.06
2023-06-29T22:00:31.862Z,18.84
2023-06-29T22:03:05.709Z,18.64
2023-06-29T22:05:35.910Z,18.48
2023-06-29T22:08:06.617Z,18.34
2023-06-29T22:10:36.579Z,18.22
2023-06-29T22:13:06.369Z,18.11
2023-06-29T22:15:38.286Z,18.02
2023-06-29T22:18:08.352Z,18.43
2023-06-29T22:20:38.317Z,20.84
2023-06-29T22:23:08.298Z,21.17
2023-06-29T22:25:38.177Z,20.52
2023-06-29T22:28:08.242Z,19.89
2023-06-29T22:30:37.987Z,19.42
2023-06-29T22:33:07.901Z,19.06
2023-06-29T22:35:38.082Z,18.77
2023-06-29T22:38:09.865Z,18.54
2023-06-29T22:40:40.186Z,18.34
2023-06-29T22:43:10.292Z,18.17
2023-06-29T22:45:40.062Z,18.02
2023-06-29T22:48:10.008Z,17.91
2023-06-29T22:50:40.328Z,17.81
2023-06-29T22:53:10.511Z,18.14
2023-06-29T22:55:40.551Z,20.47
2023-06-29T22:58:10.700Z,20.84
2023-06-29T23:00:40.596Z,20.22
2023-06-29T23:03:10.783Z,19.63
2023-06-29T23:05:41.324Z,19.19
2023-06-29T23:08:12.430Z,18.82
2023-06-29T23:10:43.198Z,18.54
2023-06-29T23:13:15.629Z,18.30
2023-06-29T23:15:46.227Z,18.12
2023-06-29T23:18:16.748Z,17.97
2023-06-29T23:20:46.922Z,17.83
2023-06-29T23:23:17.532Z,17.72
2023-06-29T23:25:48.158Z,17.62
2023-06-29T23:28:19.130Z,17.99
2023-06-29T23:30:49.081Z,20.38
2023-06-29T23:33:18.995Z,20.72
2023-06-29T23:35:49.352Z,20.09
2023-06-29T23:38:19.541Z,19.48
2023-06-29T23:40:49.253Z,19.02
2023-06-29T23:43:18.956Z,18.67
2023-06-29T23:45:49.255Z,18.38
2023-06-29T23:48:19.355Z,18.15
2023-06-29T23:50:49.361Z,17.96
2023-06-29T23:53:19.398Z,17.80
2023-06-29T23:55:49.892Z,17.67
2023-06-29T23:58:19.909Z,17.52
